Página principal
METAR-TAF:

METAR-TAF

Aeroportos :

Aeroporto Internacional de Porto Alegre

Porto Alegre, Rio Grande do Sul, Brasil

latitude: 30-00S, longitude: 051-11W, altura: 3 m

Observação actual do tempo

O boletim foi feito há 26 minutos, às 20:00 UTC
Vento 10 kt de oes-noroeste
Temperatura 25°C
Humidade 39%
Pressão 1014 hPa
Visibilidade 10 km ou mais
sem nuvens abaixo de 1500 metros e sem cumulonimbus

METAR: SBPA 252000Z 29010KT CAVOK 25/10 Q1014

Hora: 17:26 (20:26 UTC)

Previsão

O boletim foi feito há 4 horas e 41 minutos, às 15:45 UTC
Previsão válida de 25 às 18 UTC a 26 às 18 UTC
Vento 5 kt de oes-noroeste
Visibilidade 10 km ou mais
Poucas nuvensa uma altura de 3000 ft
Tornando-se
de 25 às 22 UTC a 25 às 24 UTC
Vento 5 kt de este
Visibilidade 10 km ou mais
sem nuvens abaixo de 1500 metros e sem cumulonimbus

TAF: SBPA 251545Z 2518/2618 29005KT 9999 FEW030 TX27/2518Z TN15/2608Z BECMG 2522/2524 10005KT CAVOK RMK PEB

Observações e previsões do tempo de mais de 4000 aeroportos (mensagens METAR e TAF).

As estações disponíveis são os pontos amarelos e vermelhos sobre o mapa.

Mova o rato sobre o mapa para ver o nome da estação.

Depois clique no ponto para visualizar as observações e previsões meteorológicas.

Para alterar o mapa : clique nos botões verdes com uma cruz preta para aumentar o zoom; no botão verde com uma pitada de zoom; ou nas setas verdes para mapas adjacentes.


METAR-TAF: